sensor_id;sensor_type;location;lat;lon;timestamp;pressure;altitude;pressure_sealevel;temperature;humidity
72262;BME280;60173;52.112;8.648;2022-10-17T00:02:04;100870.84;;;12.85;100.00
72262;BME280;60173;52.112;8.648;2022-10-17T00:04:31;100872.19;;;12.88;100.00
72262;BME280;60173;52.112;8.648;2022-10-17T00:06:57;100867.81;;;12.87;100.00
72262;BME280;60173;52.112;8.648;2022-10-17T00:09:23;100867.72;;;12.92;100.00
72262;BME280;60173;52.112;8.648;2022-10-17T00:11:50;100873.69;;;12.94;100.00
72262;BME280;60173;52.112;8.648;2022-10-17T00:14:16;100878.44;;;13.02;100.00
72262;BME280;60173;52.112;8.648;2022-10-17T00:16:42;100885.41;;;13.08;100.00
72262;BME280;60173;52.112;8.648;2022-10-17T00:19:09;100886.81;;;13.20;100.00
72262;BME280;60173;52.112;8.648;2022-10-17T00:21:35;100891.75;;;13.18;100.00
72262;BME280;60173;52.112;8.648;2022-10-17T00:24:01;100888.03;;;13.14;100.00
72262;BME280;60173;52.112;8.648;2022-10-17T00:26:28;100892.38;;;13.28;100.00
72262;BME280;60173;52.112;8.648;2022-10-17T00:28:55;100887.78;;;13.24;100.00
72262;BME280;60173;52.112;8.648;2022-10-17T00:31:22;100883.94;;;13.39;100.00
72262;BME280;60173;52.112;8.648;2022-10-17T00:33:49;100883.75;;;13.35;100.00
72262;BME280;60173;52.112;8.648;2022-10-17T00:36:19;100882.53;;;13.41;100.00
72262;BME280;60173;52.112;8.648;2022-10-17T00:38:50;100881.91;;;13.44;100.00
72262;BME280;60173;52.112;8.648;2022-10-17T00:41:19;100875.84;;;13.47;100.00
72262;BME280;60173;52.112;8.648;2022-10-17T00:44:00;100879.19;;;13.44;100.00
72262;BME280;60173;52.112;8.648;2022-10-17T00:46:37;100882.16;;;13.34;100.00
72262;BME280;60173;52.112;8.648;2022-10-17T00:49:07;100879.81;;;13.41;100.00
72262;BME280;60173;52.112;8.648;2022-10-17T00:51:40;100875.47;;;13.40;100.00
72262;BME280;60173;52.112;8.648;2022-10-17T00:54:07;100880.22;;;13.48;100.00
72262;BME280;60173;52.112;8.648;2022-10-17T00:56:34;100873.31;;;13.51;100.00
72262;BME280;60173;52.112;8.648;2022-10-17T00:59:01;100880.31;;;13.43;100.00
72262;BME280;60173;52.112;8.648;2022-10-17T01:01:28;100877.59;;;13.43;100.00
72262;BME280;60173;52.112;8.648;2022-10-17T01:03:54;100879.28;;;13.39;100.00
72262;BME280;60173;52.112;8.648;2022-10-17T01:06:20;100884.56;;;13.36;100.00
72262;BME280;60173;52.112;8.648;2022-10-17T01:08:47;100878.69;;;13.42;100.00
72262;BME280;60173;52.112;8.648;2022-10-17T01:13:54;100874.69;;;13.40;100.00
72262;BME280;60173;52.112;8.648;2022-10-17T01:21:53;100881.53;;;13.37;99.96
72262;BME280;60173;52.112;8.648;2022-10-17T01:33:10;100874.16;;;13.24;100.00
72262;BME280;60173;52.112;8.648;2022-10-17T01:35:58;100872.56;;;13.23;100.00
72262;BME280;60173;52.112;8.648;2022-10-17T01:38:40;100869.13;;;13.17;100.00
72262;BME280;60173;52.112;8.648;2022-10-17T01:44:11;100868.94;;;13.14;100.00
72262;BME280;60173;52.112;8.648;2022-10-17T01:46:42;100858.50;;;13.16;100.00
72262;BME280;60173;52.112;8.648;2022-10-17T01:49:12;100862.66;;;13.27;100.00
72262;BME280;60173;52.112;8.648;2022-10-17T01:51:48;100853.47;;;13.23;100.00
72262;BME280;60173;52.112;8.648;2022-10-17T01:57:05;100855.16;;;13.19;100.00
72262;BME280;60173;52.112;8.648;2022-10-17T01:59:41;100847.59;;;13.16;100.00
72262;BME280;60173;52.112;8.648;2022-10-17T02:02:13;100848.00;;;13.23;100.00
72262;BME280;60173;52.112;8.648;2022-10-17T02:04:41;100840.63;;;13.23;100.00
72262;BME280;60173;52.112;8.648;2022-10-17T02:07:08;100840.53;;;13.15;100.00
72262;BME280;60173;52.112;8.648;2022-10-17T02:09:35;100832.25;;;13.20;100.00
72262;BME280;60173;52.112;8.648;2022-10-17T02:15:27;100823.78;;;13.07;100.00
72262;BME280;60173;52.112;8.648;2022-10-17T02:18:14;100824.97;;;13.15;100.00
72262;BME280;60173;52.112;8.648;2022-10-17T02:20:50;100830.53;;;13.10;100.00
72262;BME280;60173;52.112;8.648;2022-10-17T02:23:35;100829.72;;;13.09;100.00
72262;BME280;60173;52.112;8.648;2022-10-17T02:26:27;100827.00;;;13.09;100.00
72262;BME280;60173;52.112;8.648;2022-10-17T02:29:16;100822.78;;;13.03;100.00
72262;BME280;60173;52.112;8.648;2022-10-17T02:31:47;100821.03;;;13.07;100.00
72262;BME280;60173;52.112;8.648;2022-10-17T02:34:25;100815.72;;;13.02;100.00
72262;BME280;60173;52.112;8.648;2022-10-17T02:36:56;100825.41;;;13.08;100.00
72262;BME280;60173;52.112;8.648;2022-10-17T02:39:25;100830.66;;;13.05;100.00
72262;BME280;60173;52.112;8.648;2022-10-17T02:41:54;100835.09;;;13.01;100.00
72262;BME280;60173;52.112;8.648;2022-10-17T02:44:23;100831.56;;;13.00;100.00
72262;BME280;60173;52.112;8.648;2022-10-17T02:47:00;100817.25;;;12.95;100.00
72262;BME280;60173;52.112;8.648;2022-10-17T02:49:30;100823.81;;;12.94;100.00
72262;BME280;60173;52.112;8.648;2022-10-17T02:52:11;100828.25;;;12.89;100.00
72262;BME280;60173;52.112;8.648;2022-10-17T02:54:46;100816.94;;;12.82;100.00
72262;BME280;60173;52.112;8.648;2022-10-17T02:57:34;100811.00;;;12.80;100.00
72262;BME280;60173;52.112;8.648;2022-10-17T03:00:03;100814.69;;;12.98;100.00
72262;BME280;60173;52.112;8.648;2022-10-17T03:02:43;100815.31;;;12.95;100.00
72262;BME280;60173;52.112;8.648;2022-10-17T03:05:13;100809.25;;;12.98;100.00
72262;BME280;60173;52.112;8.648;2022-10-17T03:07:39;100810.47;;;12.92;100.00
72262;BME280;60173;52.112;8.648;2022-10-17T03:10:06;100804.03;;;12.88;100.00
72262;BME280;60173;52.112;8.648;2022-10-17T03:12:32;100812.59;;;12.95;100.00
72262;BME280;60173;52.112;8.648;2022-10-17T03:14:58;100800.19;;;12.89;100.00
72262;BME280;60173;52.112;8.648;2022-10-17T03:17:25;100806.34;;;12.95;100.00
72262;BME280;60173;52.112;8.648;2022-10-17T03:19:51;100815.03;;;12.97;100.00
72262;BME280;60173;52.112;8.648;2022-10-17T03:22:17;100818.84;;;12.96;100.00
72262;BME280;60173;52.112;8.648;2022-10-17T03:24:44;100815.31;;;12.95;100.00
72262;BME280;60173;52.112;8.648;2022-10-17T03:27:10;100821.56;;;12.96;100.00
72262;BME280;60173;52.112;8.648;2022-10-17T03:29:37;100816.44;;;12.80;100.00
72262;BME280;60173;52.112;8.648;2022-10-17T03:32:03;100822.19;;;12.93;100.00
72262;BME280;60173;52.112;8.648;2022-10-17T03:34:29;100816.53;;;12.89;100.00
72262;BME280;60173;52.112;8.648;2022-10-17T03:36:56;100817.56;;;12.93;100.00
72262;BME280;60173;52.112;8.648;2022-10-17T03:39:22;100826.22;;;12.95;100.00
72262;BME280;60173;52.112;8.648;2022-10-17T03:41:48;100828.25;;;12.89;100.00
72262;BME280;60173;52.112;8.648;2022-10-17T03:44:15;100827.44;;;12.89;100.00
72262;BME280;60173;52.112;8.648;2022-10-17T03:46:41;100829.66;;;12.87;100.00
72262;BME280;60173;52.112;8.648;2022-10-17T03:49:08;100825.03;;;12.87;100.00
72262;BME280;60173;52.112;8.648;2022-10-17T03:51:35;100827.84;;;12.82;100.00
72262;BME280;60173;52.112;8.648;2022-10-17T03:54:01;100825.41;;;12.81;100.00
72262;BME280;60173;52.112;8.648;2022-10-17T03:56:28;100832.50;;;12.82;100.00
72262;BME280;60173;52.112;8.648;2022-10-17T03:58:55;100833.59;;;12.81;100.00
72262;BME280;60173;52.112;8.648;2022-10-17T04:01:22;100824.81;;;12.84;100.00
72262;BME280;60173;52.112;8.648;2022-10-17T04:03:53;100831.28;;;12.88;100.00
72262;BME280;60173;52.112;8.648;2022-10-17T04:06:20;100821.19;;;12.88;100.00
72262;BME280;60173;52.112;8.648;2022-10-17T04:08:48;100825.22;;;12.91;100.00
72262;BME280;60173;52.112;8.648;2022-10-17T04:11:19;100826.44;;;12.85;100.00
72262;BME280;60173;52.112;8.648;2022-10-17T04:13:46;100828.66;;;12.83;100.00
72262;BME280;60173;52.112;8.648;2022-10-17T04:16:15;100830.88;;;12.81;100.00
72262;BME280;60173;52.112;8.648;2022-10-17T04:18:42;100843.41;;;12.82;100.00
72262;BME280;60173;52.112;8.648;2022-10-17T04:21:10;100837.34;;;12.85;100.00
72262;BME280;60173;52.112;8.648;2022-10-17T04:23:37;100831.47;;;12.92;100.00
72262;BME280;60173;52.112;8.648;2022-10-17T04:26:04;100840.56;;;12.87;100.00
72262;BME280;60173;52.112;8.648;2022-10-17T04:28:31;100839.16;;;12.89;100.00
72262;BME280;60173;52.112;8.648;2022-10-17T04:31:06;100825.94;;;12.83;100.00
72262;BME280;60173;52.112;8.648;2022-10-17T04:33:33;100818.13;;;12.90;100.00
72262;BME280;60173;52.112;8.648;2022-10-17T04:36:02;100818.13;;;12.90;100.00
72262;BME280;60173;52.112;8.648;2022-10-17T04:38:29;100817.16;;;12.86;100.00
72262;BME280;60173;52.112;8.648;2022-10-17T04:40:59;100824.50;;;12.99;100.00
72262;BME280;60173;52.112;8.648;2022-10-17T04:43:26;100828.94;;;12.95;100.00
72262;BME280;60173;52.112;8.648;2022-10-17T04:45:52;100827.75;;;12.87;100.00
72262;BME280;60173;52.112;8.648;2022-10-17T04:48:18;100832.69;;;12.85;100.00
72262;BME280;60173;52.112;8.648;2022-10-17T04:50:54;100839.03;;;12.81;100.00
72262;BME280;60173;52.112;8.648;2022-10-17T04:53:22;100852.28;;;12.87;100.00
72262;BME280;60173;52.112;8.648;2022-10-17T04:55:49;100857.03;;;12.82;100.00
72262;BME280;60173;52.112;8.648;2022-10-17T04:58:16;100846.63;;;12.84;100.00
72262;BME280;60173;52.112;8.648;2022-10-17T05:00:42;100849.06;;;12.85;100.00
72262;BME280;60173;52.112;8.648;2022-10-17T05:03:09;100855.41;;;12.81;100.00
72262;BME280;60173;52.112;8.648;2022-10-17T05:05:39;100842.81;;;12.85;100.00
72262;BME280;60173;52.112;8.648;2022-10-17T05:08:07;100843.78;;;12.75;100.00
72262;BME280;60173;52.112;8.648;2022-10-17T05:10:38;100842.19;;;12.74;100.00
72262;BME280;60173;52.112;8.648;2022-10-17T05:13:04;100839.66;;;12.78;100.00
72262;BME280;60173;52.112;8.648;2022-10-17T05:15:31;100839.66;;;12.78;100.00
72262;BME280;60173;52.112;8.648;2022-10-17T05:17:57;100839.56;;;12.83;100.00
72262;BME280;60173;52.112;8.648;2022-10-17T05:20:24;100838.56;;;12.79;100.00
72262;BME280;60173;52.112;8.648;2022-10-17T05:22:51;100841.28;;;12.79;100.00
72262;BME280;60173;52.112;8.648;2022-10-17T05:25:18;100843.00;;;12.88;100.00
72262;BME280;60173;52.112;8.648;2022-10-17T05:27:44;100838.06;;;12.91;100.00
72262;BME280;60173;52.112;8.648;2022-10-17T05:30:11;100844.91;;;12.88;100.00
72262;BME280;60173;52.112;8.648;2022-10-17T05:32:37;100843.19;;;12.92;100.00
72262;BME280;60173;52.112;8.648;2022-10-17T05:35:04;100844.31;;;12.91;100.00
72262;BME280;60173;52.112;8.648;2022-10-17T05:37:30;100833.31;;;12.96;100.00
72262;BME280;60173;52.112;8.648;2022-10-17T05:39:57;100835.09;;;12.87;100.00
72262;BME280;60173;52.112;8.648;2022-10-17T05:42:23;100841.78;;;12.95;100.00
72262;BME280;60173;52.112;8.648;2022-10-17T05:44:50;100842.38;;;12.92;100.00
72262;BME280;60173;52.112;8.648;2022-10-17T05:47:16;100843.19;;;12.92;100.00
72262;BME280;60173;52.112;8.648;2022-10-17T05:49:43;100840.97;;;12.94;100.00
72262;BME280;60173;52.112;8.648;2022-10-17T05:52:17;100846.44;;;12.94;100.00
72262;BME280;60173;52.112;8.648;2022-10-17T05:54:43;100835.53;;;12.94;100.00
72262;BME280;60173;52.112;8.648;2022-10-17T05:57:10;100840.47;;;12.92;100.00
72262;BME280;60173;52.112;8.648;2022-10-17T05:59:36;100840.16;;;12.94;100.00
72262;BME280;60173;52.112;8.648;2022-10-17T06:02:03;100852.25;;;13.01;100.00
72262;BME280;60173;52.112;8.648;2022-10-17T06:04:29;100848.13;;;13.04;100.00
72262;BME280;60173;52.112;8.648;2022-10-17T06:06:55;100846.00;;;13.01;100.00
72262;BME280;60173;52.112;8.648;2022-10-17T06:09:22;100844.69;;;13.12;100.00
72262;BME280;60173;52.112;8.648;2022-10-17T06:11:49;100843.88;;;13.11;100.00
72262;BME280;60173;52.112;8.648;2022-10-17T06:14:15;100850.31;;;13.16;100.00
72262;BME280;60173;52.112;8.648;2022-10-17T06:16:42;100847.22;;;13.08;100.00
72262;BME280;60173;52.112;8.648;2022-10-17T06:19:08;100841.97;;;13.26;100.00
72262;BME280;60173;52.112;8.648;2022-10-17T06:21:34;100856.59;;;13.30;100.00
72262;BME280;60173;52.112;8.648;2022-10-17T06:24:01;100859.22;;;13.35;100.00
72262;BME280;60173;52.112;8.648;2022-10-17T06:26:27;100865.72;;;13.48;100.00
72262;BME280;60173;52.112;8.648;2022-10-17T06:28:54;100872.72;;;13.54;100.00
72262;BME280;60173;52.112;8.648;2022-10-17T06:31:20;100872.97;;;13.66;100.00
72262;BME280;60173;52.112;8.648;2022-10-17T06:33:47;100879.41;;;13.70;100.00
72262;BME280;60173;52.112;8.648;2022-10-17T06:36:13;100883.66;;;13.76;100.00
72262;BME280;60173;52.112;8.648;2022-10-17T06:38:40;100885.47;;;13.81;100.00
72262;BME280;60173;52.112;8.648;2022-10-17T06:41:12;100886.44;;;13.85;99.92
72262;BME280;60173;52.112;8.648;2022-10-17T06:43:40;100893.91;;;13.93;99.70
72262;BME280;60173;52.112;8.648;2022-10-17T06:46:07;100893.28;;;13.96;99.17
72262;BME280;60173;52.112;8.648;2022-10-17T06:48:34;100904.38;;;14.00;99.10
72262;BME280;60173;52.112;8.648;2022-10-17T06:51:01;100919.00;;;14.18;98.58
72262;BME280;60173;52.112;8.648;2022-10-17T06:53:29;100923.88;;;14.30;97.72
72262;BME280;60173;52.112;8.648;2022-10-17T06:55:56;100925.81;;;14.52;97.30
72262;BME280;60173;52.112;8.648;2022-10-17T06:58:22;100927.16;;;14.63;96.53
72262;BME280;60173;52.112;8.648;2022-10-17T07:00:49;100924.53;;;14.58;95.36
72262;BME280;60173;52.112;8.648;2022-10-17T07:03:15;100926.00;;;14.55;95.20
72262;BME280;60173;52.112;8.648;2022-10-17T07:05:42;100931.03;;;14.62;95.25
72262;BME280;60173;52.112;8.648;2022-10-17T07:08:08;100939.09;;;14.67;95.31
72262;BME280;60173;52.112;8.648;2022-10-17T07:10:34;100947.75;;;14.69;95.13
72262;BME280;60173;52.112;8.648;2022-10-17T07:13:00;100952.47;;;14.77;94.91
72262;BME280;60173;52.112;8.648;2022-10-17T07:15:27;100951.38;;;14.78;94.57
72262;BME280;60173;52.112;8.648;2022-10-17T07:17:53;100950.59;;;14.86;94.31
72262;BME280;60173;52.112;8.648;2022-10-17T07:20:19;100955.91;;;14.91;94.10
72262;BME280;60173;52.112;8.648;2022-10-17T07:22:46;100957.34;;;14.89;93.85
72262;BME280;60173;52.112;8.648;2022-10-17T07:25:12;100964.81;;;14.97;93.78
72262;BME280;60173;52.112;8.648;2022-10-17T07:27:38;100959.28;;;14.88;93.88
72262;BME280;60173;52.112;8.648;2022-10-17T07:30:05;100967.53;;;14.97;93.87
72262;BME280;60173;52.112;8.648;2022-10-17T07:32:32;100963.50;;;14.95;93.69
72262;BME280;60173;52.112;8.648;2022-10-17T07:34:58;100970.13;;;15.02;93.30
72262;BME280;60173;52.112;8.648;2022-10-17T07:37:25;100976.28;;;15.08;93.29
72262;BME280;60173;52.112;8.648;2022-10-17T07:39:51;100971.31;;;15.19;92.89
72262;BME280;60173;52.112;8.648;2022-10-17T07:42:17;100972.00;;;15.33;92.11
72262;BME280;60173;52.112;8.648;2022-10-17T07:44:44;100964.16;;;15.49;91.28
72262;BME280;60173;52.112;8.648;2022-10-17T07:47:10;100971.59;;;15.57;90.62
72262;BME280;60173;52.112;8.648;2022-10-17T07:49:36;100973.19;;;15.58;90.51
72262;BME280;60173;52.112;8.648;2022-10-17T07:52:02;100969.09;;;15.87;89.60
72262;BME280;60173;52.112;8.648;2022-10-17T07:54:29;100968.44;;;15.98;88.92
72262;BME280;60173;52.112;8.648;2022-10-17T07:56:55;100979.56;;;15.93;89.28
72262;BME280;60173;52.112;8.648;2022-10-17T07:59:21;100970.88;;;16.09;88.86
72262;BME280;60173;52.112;8.648;2022-10-17T08:01:48;100974.72;;;16.16;88.20
72262;BME280;60173;52.112;8.648;2022-10-17T08:04:14;100960.38;;;16.19;88.27
72262;BME280;60173;52.112;8.648;2022-10-17T08:06:40;100963.59;;;16.30;87.46
72262;BME280;60173;52.112;8.648;2022-10-17T08:09:07;100972.94;;;16.38;87.14
72262;BME280;60173;52.112;8.648;2022-10-17T08:11:33;100970.03;;;16.43;86.85
72262;BME280;60173;52.112;8.648;2022-10-17T08:13:59;100978.41;;;16.55;86.98
72262;BME280;60173;52.112;8.648;2022-10-17T08:16:26;100969.69;;;16.53;86.63
72262;BME280;60173;52.112;8.648;2022-10-17T08:18:52;100959.88;;;16.52;86.30
72262;BME280;60173;52.112;8.648;2022-10-17T08:21:18;100963.25;;;16.49;87.35
72262;BME280;60173;52.112;8.648;2022-10-17T08:23:45;100960.53;;;16.40;87.75
72262;BME280;60173;52.112;8.648;2022-10-17T08:26:12;100959.66;;;16.57;86.92
72262;BME280;60173;52.112;8.648;2022-10-17T08:28:39;100956.75;;;16.62;86.56
72262;BME280;60173;52.112;8.648;2022-10-17T08:31:08;100957.41;;;16.59;86.35
72262;BME280;60173;52.112;8.648;2022-10-17T08:33:35;100957.41;;;16.59;86.74
72262;BME280;60173;52.112;8.648;2022-10-17T08:36:03;100956.09;;;16.65;86.35
72262;BME280;60173;52.112;8.648;2022-10-17T08:38:31;100947.38;;;16.72;86.46
72262;BME280;60173;52.112;8.648;2022-10-17T08:41:10;100941.56;;;16.73;86.53
72262;BME280;60173;52.112;8.648;2022-10-17T08:43:50;100942.69;;;16.90;85.74
72262;BME280;60173;52.112;8.648;2022-10-17T08:46:28;100941.53;;;16.91;85.52
72262;BME280;60173;52.112;8.648;2022-10-17T08:48:58;100938.91;;;17.03;85.71
72262;BME280;60173;52.112;8.648;2022-10-17T08:51:31;100940.81;;;17.11;85.37
72262;BME280;60173;52.112;8.648;2022-10-17T08:54:19;100932.66;;;17.24;84.99
72262;BME280;60173;52.112;8.648;2022-10-17T08:56:49;100943.41;;;17.37;84.58
72262;BME280;60173;52.112;8.648;2022-10-17T08:59:20;100929.25;;;17.56;83.39
72262;BME280;60173;52.112;8.648;2022-10-17T09:02:38;100937.00;;;17.54;83.34
72262;BME280;60173;52.112;8.648;2022-10-17T09:11:11;100944.88;;;18.06;81.38
72262;BME280;60173;52.112;8.648;2022-10-17T09:13:50;100949.66;;;17.97;81.89
72262;BME280;60173;52.112;8.648;2022-10-17T09:16:54;100939.38;;;18.06;81.37
72262;BME280;60173;52.112;8.648;2022-10-17T09:19:33;100946.53;;;18.20;80.35
72262;BME280;60173;52.112;8.648;2022-10-17T09:22:03;100944.88;;;18.40;80.13
72262;BME280;60173;52.112;8.648;2022-10-17T09:24:40;100955.13;;;18.51;79.88
72262;BME280;60173;52.112;8.648;2022-10-17T09:27:21;100954.00;;;18.65;79.39
72262;BME280;60173;52.112;8.648;2022-10-17T09:29:50;100953.63;;;18.87;78.64
72262;BME280;60173;52.112;8.648;2022-10-17T09:32:24;100951.44;;;19.17;77.87
72262;BME280;60173;52.112;8.648;2022-10-17T09:34:52;100940.63;;;19.49;76.23
72262;BME280;60173;52.112;8.648;2022-10-17T09:37:21;100946.94;;;19.74;75.57
72262;BME280;60173;52.112;8.648;2022-10-17T09:39:50;100947.28;;;19.85;74.76
72262;BME280;60173;52.112;8.648;2022-10-17T09:42:18;100943.78;;;20.00;73.83
72262;BME280;60173;52.112;8.648;2022-10-17T09:44:50;100937.91;;;20.02;73.52
72262;BME280;60173;52.112;8.648;2022-10-17T09:49:52;100947.50;;;20.20;73.96
72262;BME280;60173;52.112;8.648;2022-10-17T09:52:34;100945.59;;;20.08;73.83
72262;BME280;60173;52.112;8.648;2022-10-17T09:55:05;100947.03;;;20.18;73.80
72262;BME280;60173;52.112;8.648;2022-10-17T09:57:52;100947.72;;;20.15;73.64
72262;BME280;60173;52.112;8.648;2022-10-17T10:00:25;100954.91;;;20.04;74.87
72262;BME280;60173;52.112;8.648;2022-10-17T10:03:29;100944.66;;;20.04;75.46
72262;BME280;60173;52.112;8.648;2022-10-17T10:08:33;100950.28;;;20.36;74.26
72262;BME280;60173;52.112;8.648;2022-10-17T10:11:03;100943.66;;;20.53;75.31
72262;BME280;60173;52.112;8.648;2022-10-17T10:13:32;100941.81;;;20.73;72.83
72262;BME280;60173;52.112;8.648;2022-10-17T10:16:29;100946.53;;;20.72;70.90
72262;BME280;60173;52.112;8.648;2022-10-17T10:18:56;100952.03;;;20.57;71.89
72262;BME280;60173;52.112;8.648;2022-10-17T10:21:25;100942.00;;;20.64;71.74
72262;BME280;60173;52.112;8.648;2022-10-17T10:29:34;100979.66;;;20.88;71.04
72262;BME280;60173;52.112;8.648;2022-10-17T10:32:09;100972.56;;;21.03;70.89
72262;BME280;60173;52.112;8.648;2022-10-17T10:34:45;100972.09;;;21.17;70.50
72262;BME280;60173;52.112;8.648;2022-10-17T10:37:25;100970.94;;;21.34;70.44
72262;BME280;60173;52.112;8.648;2022-10-17T10:39:56;100976.72;;;21.29;69.00
72262;BME280;60173;52.112;8.648;2022-10-17T10:42:26;100965.94;;;21.55;68.59
72262;BME280;60173;52.112;8.648;2022-10-17T10:44:57;100974.03;;;21.64;69.03
72262;BME280;60173;52.112;8.648;2022-10-17T10:47:29;100975.56;;;21.81;67.90
72262;BME280;60173;52.112;8.648;2022-10-17T10:53:15;100968.47;;;21.99;65.94
72262;BME280;60173;52.112;8.648;2022-10-17T10:55:53;100966.84;;;21.98;65.92
72262;BME280;60173;52.112;8.648;2022-10-17T10:58:46;100988.25;;;21.82;65.59
72262;BME280;60173;52.112;8.648;2022-10-17T11:06:35;100997.91;;;22.27;65.29
72262;BME280;60173;52.112;8.648;2022-10-17T11:09:27;101005.34;;;22.23;64.88
72262;BME280;60173;52.112;8.648;2022-10-17T11:12:09;101007.88;;;22.31;65.71
72262;BME280;60173;52.112;8.648;2022-10-17T11:17:27;101018.00;;;22.24;66.06
72262;BME280;60173;52.112;8.648;2022-10-17T11:23:01;101023.47;;;21.85;65.68
72262;BME280;60173;52.112;8.648;2022-10-17T11:25:35;101030.44;;;21.79;66.01
72262;BME280;60173;52.112;8.648;2022-10-17T11:28:07;101042.41;;;21.51;66.74
72262;BME280;60173;52.112;8.648;2022-10-17T11:31:00;101039.84;;;21.42;66.89
72262;BME280;60173;52.112;8.648;2022-10-17T11:33:56;101057.66;;;21.45;67.07
72262;BME280;60173;52.112;8.648;2022-10-17T11:36:28;101061.16;;;21.42;68.06
72262;BME280;60173;52.112;8.648;2022-10-17T11:39:04;101066.31;;;21.43;67.97
72262;BME280;60173;52.112;8.648;2022-10-17T11:44:14;101062.47;;;21.64;67.29
72262;BME280;60173;52.112;8.648;2022-10-17T11:46:47;101065.84;;;21.57;67.65
72262;BME280;60173;52.112;8.648;2022-10-17T11:49:19;101068.25;;;21.75;66.86
72262;BME280;60173;52.112;8.648;2022-10-17T11:51:50;101074.69;;;21.79;66.42
72262;BME280;60173;52.112;8.648;2022-10-17T11:54:34;101066.66;;;21.74;66.49
72262;BME280;60173;52.112;8.648;2022-10-17T12:10:44;101093.84;;;21.87;65.73
72262;BME280;60173;52.112;8.648;2022-10-17T12:16:43;101095.03;;;21.39;66.80
72262;BME280;60173;52.112;8.648;2022-10-17T12:19:15;101102.22;;;20.84;68.63
72262;BME280;60173;52.112;8.648;2022-10-17T12:24:34;101095.84;;;20.67;69.81
72262;BME280;60173;52.112;8.648;2022-10-17T12:27:21;101094.66;;;20.68;69.44
72262;BME280;60173;52.112;8.648;2022-10-17T12:29:48;101089.34;;;21.04;68.27
72262;BME280;60173;52.112;8.648;2022-10-17T12:32:15;101090.91;;;21.33;67.20
72262;BME280;60173;52.112;8.648;2022-10-17T12:34:52;101088.78;;;21.42;66.16
72262;BME280;60173;52.112;8.648;2022-10-17T12:56:38;101097.41;;;20.81;67.23
72262;BME280;60173;52.112;8.648;2022-10-17T12:59:14;101094.09;;;20.75;68.49
72262;BME280;60173;52.112;8.648;2022-10-17T13:01:44;101092.13;;;20.75;69.06
72262;BME280;60173;52.112;8.648;2022-10-17T13:04:11;101088.75;;;20.82;69.67
72262;BME280;60173;52.112;8.648;2022-10-17T13:06:44;101074.91;;;20.66;69.85
72262;BME280;60173;52.112;8.648;2022-10-17T13:09:19;101079.34;;;20.55;70.22
72262;BME280;60173;52.112;8.648;2022-10-17T13:11:48;101079.16;;;20.23;70.39
72262;BME280;60173;52.112;8.648;2022-10-17T13:14:18;101084.78;;;20.27;70.47
72262;BME280;60173;52.112;8.648;2022-10-17T13:17:03;101084.88;;;20.30;70.34
72262;BME280;60173;52.112;8.648;2022-10-17T13:19:42;101084.50;;;20.44;69.39
72262;BME280;60173;52.112;8.648;2022-10-17T13:22:26;101085.53;;;20.52;69.84
72262;BME280;60173;52.112;8.648;2022-10-17T13:25:06;101092.97;;;20.64;69.61
72262;BME280;60173;52.112;8.648;2022-10-17T13:27:35;101101.88;;;20.57;70.41
72262;BME280;60173;52.112;8.648;2022-10-17T13:30:28;101091.25;;;20.59;70.29
72262;BME280;60173;52.112;8.648;2022-10-17T13:32:58;101094.88;;;20.75;69.61
72262;BME280;60173;52.112;8.648;2022-10-17T13:35:35;101105.28;;;20.66;68.98
72262;BME280;60173;52.112;8.648;2022-10-17T13:38:28;101108.03;;;20.66;69.84
72262;BME280;60173;52.112;8.648;2022-10-17T13:40:55;101101.44;;;20.71;70.20
72262;BME280;60173;52.112;8.648;2022-10-17T13:43:36;101108.44;;;20.81;69.57
72262;BME280;60173;52.112;8.648;2022-10-17T13:46:03;101115.38;;;20.74;69.59
72262;BME280;60173;52.112;8.648;2022-10-17T13:48:50;101113.66;;;20.70;70.12
72262;BME280;60173;52.112;8.648;2022-10-17T13:51:16;101118.84;;;20.59;70.30
72262;BME280;60173;52.112;8.648;2022-10-17T13:53:43;101122.53;;;20.51;70.19
72262;BME280;60173;52.112;8.648;2022-10-17T13:56:16;101120.38;;;20.44;70.70
72262;BME280;60173;52.112;8.648;2022-10-17T13:59:02;101124.19;;;20.40;71.04
72262;BME280;60173;52.112;8.648;2022-10-17T14:01:36;101130.28;;;20.33;71.60
72262;BME280;60173;52.112;8.648;2022-10-17T14:04:03;101133.34;;;20.44;70.24
72262;BME280;60173;52.112;8.648;2022-10-17T14:06:46;101142.44;;;20.57;70.08
72262;BME280;60173;52.112;8.648;2022-10-17T14:09:21;101147.38;;;20.39;69.70
72262;BME280;60173;52.112;8.648;2022-10-17T14:12:07;101141.66;;;20.31;69.10
72262;BME280;60173;52.112;8.648;2022-10-17T14:14:35;101153.41;;;20.28;69.70
72262;BME280;60173;52.112;8.648;2022-10-17T14:17:27;101149.50;;;20.17;70.62
72262;BME280;60173;52.112;8.648;2022-10-17T14:19:56;101153.06;;;20.18;71.12
72262;BME280;60173;52.112;8.648;2022-10-17T14:22:43;101160.06;;;20.15;70.07
72262;BME280;60173;52.112;8.648;2022-10-17T14:25:37;101165.59;;;20.03;70.65
72262;BME280;60173;52.112;8.648;2022-10-17T14:33:28;101160.41;;;19.89;71.01
72262;BME280;60173;52.112;8.648;2022-10-17T14:35:57;101169.84;;;20.00;71.09
72262;BME280;60173;52.112;8.648;2022-10-17T14:38:24;101168.25;;;19.99;71.27
72262;BME280;60173;52.112;8.648;2022-10-17T14:41:05;101174.78;;;19.95;71.66
72262;BME280;60173;52.112;8.648;2022-10-17T14:43:56;101172.81;;;19.95;71.51
72262;BME280;60173;52.112;8.648;2022-10-17T14:46:23;101186.97;;;19.94;72.70
72262;BME280;60173;52.112;8.648;2022-10-17T14:48:57;101188.09;;;19.80;72.59
72262;BME280;60173;52.112;8.648;2022-10-17T14:51:27;101192.59;;;19.52;73.99